Terminal Aerodrome Forecast
Issued by NWS Binghamton, NY

Home | Current Version | Previous Version | Text Only | Print | Product List | Glossary On
Versions: 1 2 3 4 5 6 7 8 9 10 11 12 13 14 15 16 17 18 19 20
636
FTUS41 KBGM 212320
TAFAVP
TAF
KAVP 212320Z 2200/2224 00000KT P6SM FEW250
     FM220700 VRB03KT P6SM OVC100
     FM221000 VRB03KT P6SM -SHRA OVC050
     FM221600 18006KT 6SM -SHRA BR OVC035
     FM221900 18006KT P6SM OVC045=

USA.gov is the U.S. government's official web portal to all federal, state and local government web resources and services.